Terminal Aerodrome Forecast
Issued by NWS Burlington, VT

Home | Current Version | Previous Version | Text Only | Print | Product List | Glossary On
Versions: 1 2 3 4 5 6 7 8 9 10 11 12 13 14 15 16 17 18 19 20 21
787
FTUS41 KBTV 250536
TAFBTV
TAF
KBTV 250536Z 2506/2606 VRB03KT P6SM BKN150
     FM251300 18007KT P6SM BKN150
     FM252000 19008KT P6SM VCSH BKN050
     FM260300 20006KT P6SM BKN080=

USA.gov is the U.S. government's official web portal to all federal, state and local government web resources and services.